createdAt,value
2018-02-06T00:00:16.034Z,82.60
2018-02-06T00:02:43.601Z,82.80
2018-02-06T00:05:11.124Z,82.70
2018-02-06T00:07:38.688Z,82.90
2018-02-06T00:10:06.442Z,82.50
2018-02-06T00:12:33.968Z,82.70
2018-02-06T00:15:01.517Z,82.80
2018-02-06T00:17:29.130Z,83.80
2018-02-06T00:19:56.702Z,83.50
2018-02-06T00:22:36.188Z,83.90
2018-02-06T00:25:04.018Z,84.10
2018-02-06T00:27:31.537Z,84.40
2018-02-06T00:29:59.062Z,84.40
2018-02-06T00:32:26.583Z,84.40
2018-02-06T00:34:54.887Z,84.00
2018-02-06T00:37:22.428Z,84.00
2018-02-06T00:39:50.729Z,84.30
2018-02-06T00:42:18.263Z,84.30
2018-02-06T00:44:45.792Z,83.80
2018-02-06T00:47:14.179Z,83.70
2018-02-06T00:49:41.761Z,83.70
2018-02-06T00:52:09.292Z,83.50
2018-02-06T00:54:36.820Z,83.50
2018-02-06T00:57:04.406Z,83.20
2018-02-06T00:59:31.928Z,83.50
2018-02-06T01:01:59.483Z,83.10
2018-02-06T01:04:27.054Z,83.60
2018-02-06T01:06:54.573Z,83.70
2018-02-06T01:09:22.099Z,83.70
2018-02-06T01:11:49.687Z,83.80
2018-02-06T01:14:18.000Z,84.00
2018-02-06T01:16:45.549Z,83.90
2018-02-06T01:19:13.073Z,84.30
2018-02-06T01:21:40.774Z,84.30
2018-02-06T01:24:08.280Z,84.60
2018-02-06T01:26:35.829Z,84.40
2018-02-06T01:29:03.376Z,85.20
2018-02-06T01:31:30.914Z,85.00
2018-02-06T01:33:59.212Z,85.70
2018-02-06T01:36:26.732Z,85.70
2018-02-06T01:38:54.403Z,86.00
2018-02-06T01:41:21.929Z,86.60
2018-02-06T01:43:49.448Z,87.20
2018-02-06T01:46:16.987Z,88.40
2018-02-06T01:48:44.514Z,88.70
2018-02-06T01:51:12.080Z,89.00
2018-02-06T01:53:39.589Z,89.20
2018-02-06T01:56:07.127Z,88.40
2018-02-06T01:58:34.647Z,89.10
2018-02-06T02:01:02.937Z,90.20
2018-02-06T02:03:31.345Z,90.00
2018-02-06T02:05:58.887Z,90.00
2018-02-06T02:08:27.157Z,90.70
2018-02-06T02:10:55.456Z,90.60
2018-02-06T02:13:23.738Z,90.50
2018-02-06T02:15:52.069Z,90.80
2018-02-06T02:18:19.613Z,90.80
2018-02-06T02:20:47.136Z,90.50
2018-02-06T02:23:15.451Z,90.20
2018-02-06T02:25:43.029Z,90.20
2018-02-06T02:28:10.970Z,90.00
2018-02-06T02:30:39.277Z,89.40
2018-02-06T02:33:06.802Z,89.30
2018-02-06T02:35:35.091Z,88.90
2018-02-06T02:38:03.469Z,88.00
2018-02-06T02:40:31.820Z,88.80
2018-02-06T04:38:46.205Z,85.70
2018-02-06T04:41:13.731Z,85.70
2018-02-06T04:43:42.029Z,86.00
2018-02-06T04:46:09.555Z,86.00
2018-02-06T04:48:37.155Z,86.10
2018-02-06T04:51:05.433Z,86.60
2018-02-06T04:53:32.944Z,85.90
2018-02-06T04:56:00.481Z,86.00
2018-02-06T04:58:28.176Z,86.00
2018-02-06T05:00:55.692Z,86.30
2018-02-06T05:03:23.991Z,86.60
2018-02-06T05:05:51.551Z,86.50
2018-02-06T05:08:19.849Z,87.00
2018-02-06T05:10:47.445Z,87.00
2018-02-06T05:13:14.969Z,87.00
2018-02-06T05:15:42.508Z,87.00
2018-02-06T05:18:11.018Z,87.10
2018-02-06T05:20:38.538Z,87.10
2018-02-06T05:23:06.066Z,87.80
2018-02-06T05:25:33.605Z,87.00
2018-02-06T05:28:01.153Z,87.10
2018-02-06T05:30:29.464Z,87.00
2018-02-06T05:32:56.987Z,87.00
2018-02-06T05:35:24.510Z,87.00
2018-02-06T05:37:52.052Z,86.90
2018-02-06T05:40:19.579Z,87.20
2018-02-06T05:42:47.373Z,87.60
2018-02-06T05:45:15.666Z,87.80
2018-02-06T05:47:43.190Z,87.80
2018-02-06T05:50:10.724Z,88.20
2018-02-06T05:52:38.270Z,88.20
2018-02-06T05:55:05.803Z,88.50
2018-02-06T05:57:34.091Z,87.10
2018-02-06T06:00:02.398Z,87.30
2018-02-06T06:02:30.674Z,87.10
2018-02-06T06:04:58.190Z,87.10
2018-02-06T06:07:25.744Z,87.10
2018-02-06T06:09:53.272Z,87.10
2018-02-06T06:12:20.817Z,87.10
2018-02-06T06:14:49.140Z,87.20
2018-02-06T06:17:16.678Z,87.20
2018-02-06T06:19:44.223Z,87.10
2018-02-06T06:22:12.522Z,87.20
2018-02-06T06:24:40.966Z,87.10
2018-02-06T06:27:08.505Z,87.10
2018-02-06T06:29:36.032Z,87.20
2018-02-06T06:32:04.370Z,87.20
2018-02-06T06:34:32.085Z,87.10
2018-02-06T06:37:00.420Z,87.60
2018-02-06T06:39:28.706Z,87.20
2018-02-06T06:41:56.251Z,88.00
2018-02-06T06:44:23.782Z,87.20
2018-02-06T06:46:52.067Z,87.20
2018-02-06T06:49:19.665Z,87.20
2018-02-06T06:51:47.176Z,87.20
2018-02-06T06:54:15.477Z,88.00
2018-02-06T06:56:43.783Z,87.20
2018-02-06T06:59:11.525Z,87.20
2018-02-06T07:01:39.829Z,87.20
2018-02-06T07:04:07.357Z,87.20
2018-02-06T07:06:34.960Z,87.20
2018-02-06T07:09:02.511Z,87.20
2018-02-06T07:11:30.801Z,87.30
2018-02-06T07:13:58.324Z,87.20
2018-02-06T07:16:25.854Z,87.30
2018-02-06T07:18:53.408Z,87.30
2018-02-06T07:21:21.398Z,87.10
2018-02-06T07:23:49.662Z,86.90
2018-02-06T07:26:17.190Z,86.80
2018-02-06T07:28:45.506Z,86.70
2018-02-06T07:31:13.023Z,86.70
2018-02-06T07:33:40.637Z,86.50
2018-02-06T07:36:08.141Z,86.40
2018-02-06T07:38:35.783Z,86.00
2018-02-06T07:41:03.320Z,85.70
2018-02-06T07:43:30.846Z,85.60
2018-02-06T07:45:58.388Z,85.10
2018-02-06T07:48:25.913Z,85.10
2018-02-06T07:50:53.451Z,84.90
2018-02-06T07:53:21.016Z,84.60
2018-02-06T07:55:48.568Z,84.70
2018-02-06T07:58:16.112Z,84.50
2018-02-06T08:00:43.666Z,84.20
2018-02-06T08:03:11.201Z,83.90
2018-02-06T08:05:39.485Z,83.50
2018-02-06T08:08:07.168Z,83.50
2018-02-06T08:10:34.703Z,83.90
2018-02-06T08:13:03.062Z,83.60
2018-02-06T08:15:30.702Z,83.50
2018-02-06T08:17:58.220Z,83.80
2018-02-06T08:20:26.502Z,84.00
2018-02-06T08:22:54.827Z,83.80
2018-02-06T08:25:22.345Z,83.60
2018-02-06T08:27:49.866Z,83.40
2018-02-06T08:30:17.389Z,83.10
2018-02-06T08:32:45.674Z,82.60
2018-02-06T08:35:13.989Z,82.50
2018-02-06T08:37:41.504Z,82.50
2018-02-06T08:40:09.805Z,82.80
2018-02-06T08:42:37.476Z,82.80
2018-02-06T08:45:04.992Z,82.30
2018-02-06T08:47:32.541Z,82.50
2018-02-06T08:50:00.071Z,81.80
2018-02-06T08:52:27.598Z,81.60
2018-02-06T08:54:55.117Z,81.20
2018-02-06T08:57:22.778Z,81.90
2018-02-06T08:59:50.320Z,81.20
2018-02-06T09:02:18.701Z,81.40
2018-02-06T09:04:47.008Z,80.90
2018-02-06T09:07:14.512Z,80.90
2018-02-06T09:09:42.794Z,80.20
2018-02-06T09:12:10.344Z,80.20
2018-02-06T09:14:37.857Z,80.00
2018-02-06T09:17:06.157Z,79.80
2018-02-06T09:19:33.684Z,79.80
2018-02-06T09:22:01.216Z,79.40
2018-02-06T09:24:28.754Z,79.10
2018-02-06T09:26:56.280Z,79.00
2018-02-06T09:29:23.799Z,79.10
2018-02-06T09:31:51.365Z,79.10
2018-02-06T09:34:19.649Z,79.10
2018-02-06T09:36:47.180Z,79.10
2018-02-06T09:39:15.470Z,79.10
2018-02-06T09:41:43.756Z,79.20
2018-02-06T09:44:11.276Z,79.20
2018-02-06T09:46:38.784Z,78.80
2018-02-06T09:49:06.641Z,79.10
2018-02-06T09:51:34.934Z,79.30
2018-02-06T09:54:03.211Z,78.70
2018-02-06T09:56:31.516Z,77.80
2018-02-06T09:58:59.032Z,77.70
2018-02-06T10:01:26.605Z,78.00
2018-02-06T10:03:54.113Z,77.70
2018-02-06T10:06:21.638Z,77.70
2018-02-06T10:08:49.177Z,77.20
2018-02-06T10:11:16.713Z,77.10
2018-02-06T10:13:44.252Z,76.60
2018-02-06T10:16:12.535Z,75.90
2018-02-06T10:18:40.826Z,75.60
2018-02-06T10:21:09.134Z,75.70
2018-02-06T10:23:36.647Z,75.70
2018-02-06T10:26:04.951Z,75.00
2018-02-06T10:28:33.232Z,74.80
2018-02-06T10:31:00.771Z,74.70
2018-02-06T10:33:28.316Z,75.10
2018-02-06T10:35:55.875Z,74.40
2018-02-06T10:38:23.411Z,75.00
2018-02-06T10:40:50.928Z,75.20
2018-02-06T10:43:18.455Z,74.80
2018-02-06T10:45:46.025Z,75.70
2018-02-06T10:48:13.628Z,75.80
2018-02-06T10:50:41.193Z,75.80
2018-02-06T10:53:08.717Z,75.20
2018-02-06T10:55:36.248Z,75.80
2018-02-06T10:58:03.787Z,76.20
2018-02-06T11:00:31.313Z,75.10
2018-02-06T11:02:58.872Z,75.00
2018-02-06T11:05:26.395Z,74.70
2018-02-06T11:07:54.688Z,75.20
2018-02-06T11:10:23.000Z,74.90
2018-02-06T11:12:50.538Z,74.90
2018-02-06T11:15:18.092Z,74.70
2018-02-06T11:17:46.403Z,73.50
2018-02-06T11:20:13.962Z,73.40
2018-02-06T11:22:41.483Z,72.60
2018-02-06T11:25:09.071Z,72.20
2018-02-06T11:27:36.560Z,72.90
2018-02-06T11:30:04.086Z,71.50
2018-02-06T11:32:31.609Z,71.30
2018-02-06T11:34:59.194Z,71.10
2018-02-06T11:37:26.717Z,71.10
2018-02-06T11:39:54.449Z,70.60
2018-02-06T11:42:22.745Z,70.30
2018-02-06T11:44:51.029Z,70.90
2018-02-06T11:47:19.377Z,72.30
2018-02-06T11:49:46.983Z,72.30
2018-02-06T11:52:15.367Z,73.30
2018-02-06T11:54:43.648Z,72.30
2018-02-06T11:57:12.069Z,72.70
2018-02-06T11:59:39.708Z,72.70
2018-02-06T12:02:07.981Z,72.10
2018-02-06T12:04:36.266Z,72.40
2018-02-06T12:07:04.557Z,72.20
2018-02-06T12:09:32.093Z,72.20
2018-02-06T12:11:59.699Z,71.80
2018-02-06T12:14:27.220Z,70.70
2018-02-06T12:16:54.731Z,70.50
2018-02-06T12:19:22.252Z,70.90
2018-02-06T12:21:49.783Z,70.20
2018-02-06T12:24:17.331Z,69.80
2018-02-06T12:26:44.865Z,70.20
2018-02-06T12:29:13.167Z,69.70
2018-02-06T12:31:40.686Z,69.70
2018-02-06T12:34:08.222Z,69.30
2018-02-06T12:36:35.767Z,69.40
2018-02-06T12:39:03.268Z,69.60
2018-02-06T12:41:30.801Z,69.40
2018-02-06T12:43:58.332Z,69.70
2018-02-06T12:46:26.646Z,69.30
2018-02-06T12:48:54.178Z,69.30
2018-02-06T12:51:22.484Z,70.30
2018-02-06T12:53:50.015Z,70.30
2018-02-06T12:56:17.548Z,69.00
2018-02-06T12:58:45.854Z,70.00
2018-02-06T13:01:13.515Z,70.00
2018-02-06T13:03:41.052Z,69.70
2018-02-06T13:06:08.566Z,70.60
2018-02-06T13:08:36.902Z,70.00
2018-02-06T13:11:04.431Z,69.90
2018-02-06T13:13:31.985Z,69.60
2018-02-06T13:16:00.324Z,70.30
2018-02-06T13:18:28.617Z,69.70
2018-02-06T13:20:56.140Z,69.50
2018-02-06T13:23:23.675Z,69.40
2018-02-06T13:25:52.089Z,69.00
2018-02-06T13:28:19.612Z,69.00
2018-02-06T13:30:47.133Z,68.90
2018-02-06T13:33:14.658Z,68.30
2018-02-06T13:35:42.976Z,69.40
2018-02-06T13:38:10.479Z,69.40
2018-02-06T13:40:38.004Z,68.30
2018-02-06T13:43:05.539Z,67.10
2018-02-06T13:45:33.845Z,67.30
2018-02-06T13:48:01.362Z,67.30
2018-02-06T13:50:28.901Z,67.80
2018-02-06T13:52:56.429Z,68.90
2018-02-06T13:55:24.003Z,69.60
2018-02-06T13:57:51.523Z,70.50
2018-02-06T14:00:19.044Z,71.50
2018-02-06T14:02:46.601Z,70.80
2018-02-06T14:05:14.217Z,71.00
2018-02-06T14:07:41.752Z,71.30
2018-02-06T14:10:09.280Z,71.40
2018-02-06T14:12:36.857Z,71.00
2018-02-06T14:15:04.412Z,70.90
2018-02-06T14:17:31.932Z,70.60
2018-02-06T14:19:59.469Z,70.80
2018-02-06T14:22:27.045Z,71.40
2018-02-06T14:24:54.567Z,71.40
2018-02-06T14:27:22.887Z,72.50
2018-02-06T14:29:50.432Z,72.50
2018-02-06T14:32:17.962Z,73.00
2018-02-06T14:34:46.258Z,72.60
2018-02-06T14:37:14.565Z,73.70
2018-02-06T14:39:42.112Z,73.70
2018-02-06T14:42:09.636Z,73.90
2018-02-06T14:44:37.174Z,73.60
2018-02-06T14:47:04.691Z,74.10
2018-02-06T14:49:32.996Z,74.10
2018-02-06T14:52:00.552Z,74.10
2018-02-06T14:54:28.832Z,74.70
2018-02-06T14:56:57.123Z,75.00
2018-02-06T14:59:24.649Z,75.00
2018-02-06T15:01:52.182Z,74.90
2018-02-06T15:04:19.733Z,74.90
2018-02-06T15:06:47.432Z,75.30
2018-02-06T15:09:14.965Z,75.90
2018-02-06T15:11:42.497Z,75.80
2018-02-06T15:14:10.791Z,75.20
2018-02-06T15:16:39.104Z,75.80
2018-02-06T15:19:06.616Z,75.90
2018-02-06T15:21:34.904Z,75.50
2018-02-06T15:24:03.191Z,76.80
2018-02-06T15:26:31.490Z,76.60
2018-02-06T15:28:59.059Z,76.60
2018-02-06T15:31:26.594Z,76.60
2018-02-06T15:33:54.129Z,76.50
2018-02-06T15:36:21.657Z,77.30
2018-02-06T15:38:49.202Z,77.70
2018-02-06T15:41:17.547Z,78.30
2018-02-06T15:43:45.080Z,78.30
2018-02-06T15:46:12.612Z,78.10
2018-02-06T15:48:40.973Z,77.90
2018-02-06T15:51:08.497Z,77.90
2018-02-06T15:53:36.058Z,78.10
2018-02-06T15:56:03.572Z,77.80
2018-02-06T15:58:31.192Z,77.80
2018-02-06T16:00:59.109Z,77.40
2018-02-06T16:03:26.635Z,77.70
2018-02-06T16:05:54.173Z,77.80
2018-02-06T16:08:21.708Z,77.80
2018-02-06T16:10:49.244Z,78.20
2018-02-06T16:13:16.801Z,78.40
2018-02-06T16:15:44.324Z,78.90
2018-02-06T16:18:12.628Z,80.10
2018-02-06T16:20:40.143Z,80.00
2018-02-06T16:23:07.671Z,79.70
2018-02-06T16:25:35.205Z,80.10
2018-02-06T16:28:03.509Z,79.70
2018-02-06T16:30:31.041Z,79.70
2018-02-06T16:32:59.352Z,80.10
2018-02-06T16:35:26.897Z,80.10
2018-02-06T16:37:55.257Z,80.30
2018-02-06T16:40:22.792Z,80.20
2018-02-06T16:42:50.323Z,80.70
2018-02-06T16:45:18.062Z,80.80
2018-02-06T16:47:45.591Z,81.00
2018-02-06T16:50:13.121Z,80.90
2018-02-06T16:52:41.413Z,81.00
2018-02-06T16:55:09.031Z,80.90
2018-02-06T16:57:37.455Z,81.20
2018-02-06T17:00:04.979Z,81.60
2018-02-06T17:02:41.419Z,81.60
2018-02-06T17:05:08.967Z,81.50
2018-02-06T17:07:36.481Z,81.70
2018-02-06T17:10:04.044Z,81.90
2018-02-06T17:12:31.654Z,82.10
2018-02-06T17:14:59.201Z,81.90
2018-02-06T17:17:27.501Z,82.00
2018-02-06T17:19:55.051Z,82.00
2018-02-06T17:22:23.351Z,82.60
2018-02-06T17:24:50.880Z,82.50
2018-02-06T17:27:18.546Z,82.50
2018-02-06T17:29:46.095Z,82.60
2018-02-06T17:32:14.437Z,82.80
2018-02-06T17:34:42.028Z,82.10
2018-02-06T17:37:09.551Z,82.10
2018-02-06T17:39:37.869Z,82.30
2018-02-06T17:42:05.416Z,82.20
2018-02-06T17:44:32.974Z,82.20
2018-02-06T17:47:01.281Z,82.10
2018-02-06T17:49:28.812Z,82.00
2018-02-06T17:51:57.170Z,82.10
2018-02-06T17:54:24.691Z,82.10
2018-02-06T17:56:52.331Z,82.00
2018-02-06T17:59:19.827Z,82.40
2018-02-06T18:01:47.362Z,82.60
2018-02-06T18:04:15.726Z,82.80
2018-02-06T18:06:44.046Z,82.70
2018-02-06T18:09:11.599Z,82.70
2018-02-06T18:11:39.150Z,82.50
2018-02-06T18:14:07.439Z,82.40
2018-02-06T18:16:35.019Z,82.40
2018-02-06T18:19:02.596Z,82.60
2018-02-06T18:21:30.151Z,82.90
2018-02-06T18:23:57.681Z,82.80
2018-02-06T18:26:25.983Z,83.20
2018-02-06T18:28:53.567Z,83.20
2018-02-06T18:31:21.131Z,83.40
2018-02-06T18:33:49.405Z,83.70
2018-02-06T18:36:17.179Z,83.70
2018-02-06T18:38:44.703Z,84.10
2018-02-06T18:41:12.246Z,84.20
2018-02-06T18:43:39.783Z,83.80
2018-02-06T18:46:08.032Z,83.80
2018-02-06T18:48:36.334Z,83.60
2018-02-06T18:51:03.855Z,83.60
2018-02-06T18:53:31.477Z,83.60
2018-02-06T18:55:58.940Z,83.50
2018-02-06T18:58:26.501Z,83.70
2018-02-06T19:00:54.030Z,83.80
2018-02-06T19:03:22.337Z,84.00
2018-02-06T19:05:49.907Z,83.90
2018-02-06T19:08:17.445Z,84.00
2018-02-06T19:10:44.976Z,83.90
2018-02-06T19:13:12.535Z,83.90
2018-02-06T19:15:40.089Z,83.10
2018-02-06T19:18:07.766Z,83.60
2018-02-06T19:20:35.323Z,83.30
2018-02-06T19:23:02.857Z,83.40
2018-02-06T19:25:30.846Z,83.60
2018-02-06T19:27:58.390Z,83.40
2018-02-06T19:30:26.710Z,82.90
2018-02-06T19:32:54.327Z,82.80
2018-02-06T19:35:21.878Z,82.80
2018-02-06T19:37:50.279Z,82.50
2018-02-06T19:40:17.817Z,82.80
2018-02-06T19:42:45.367Z,83.20
2018-02-06T19:45:13.723Z,83.00
2018-02-06T19:47:41.273Z,83.00
2018-02-06T19:50:09.614Z,82.30
2018-02-06T19:52:37.159Z,82.30
2018-02-06T19:55:05.212Z,81.60
2018-02-06T19:57:32.746Z,82.10
2018-02-06T20:00:00.313Z,82.30
2018-02-06T20:02:27.860Z,82.50
2018-02-06T20:04:55.439Z,82.80
2018-02-06T20:07:23.036Z,83.10
2018-02-06T20:09:50.607Z,82.90
2018-02-06T20:12:18.477Z,83.00
2018-02-06T20:14:46.063Z,83.00
2018-02-06T20:17:13.620Z,83.40
2018-02-06T20:19:41.530Z,83.50
2018-02-06T20:22:09.776Z,84.40
2018-02-06T20:24:37.335Z,84.50
2018-02-06T20:27:04.892Z,84.90
2018-02-06T20:29:32.448Z,84.80
2018-02-06T20:32:00.837Z,85.20
2018-02-06T20:34:28.408Z,85.20
2018-02-06T20:36:56.082Z,85.60
2018-02-06T20:39:23.685Z,85.70
2018-02-06T20:41:51.271Z,85.70
2018-02-06T20:44:18.857Z,85.80
2018-02-06T20:46:47.195Z,85.70
2018-02-06T20:49:14.931Z,85.70
2018-02-06T20:51:42.540Z,85.90
2018-02-06T20:54:10.118Z,86.10
2018-02-06T20:56:37.686Z,86.30
2018-02-06T20:59:05.247Z,86.50
2018-02-06T21:01:32.827Z,86.60
2018-02-06T21:04:00.396Z,86.70
2018-02-06T21:06:27.995Z,87.30
2018-02-06T21:08:55.552Z,87.30
2018-02-06T21:11:23.090Z,87.20
2018-02-06T21:13:51.426Z,87.60
2018-02-06T21:16:19.778Z,87.60
2018-02-06T21:18:47.362Z,87.60
2018-02-06T21:21:14.913Z,88.00
2018-02-06T21:23:42.480Z,88.10
2018-02-06T21:26:10.027Z,88.00
2018-02-06T21:28:38.335Z,88.00
2018-02-06T21:31:05.878Z,88.00
2018-02-06T21:33:34.200Z,87.60
2018-02-06T21:36:01.889Z,87.50
2018-02-06T21:38:29.436Z,87.50
2018-02-06T21:40:57.100Z,87.80
2018-02-06T21:43:24.647Z,88.00
2018-02-06T21:45:52.219Z,88.00
2018-02-06T21:48:19.755Z,88.00
2018-02-06T21:50:48.066Z,88.10
2018-02-06T21:53:15.776Z,88.10
2018-02-06T21:55:43.345Z,88.10
2018-02-06T21:58:11.641Z,88.10
2018-02-06T22:00:39.436Z,88.00
2018-02-06T22:03:07.066Z,88.30
2018-02-06T22:05:34.611Z,88.50
2018-02-06T22:08:02.247Z,88.80
2018-02-06T22:10:29.807Z,88.90
2018-02-06T22:12:57.347Z,88.70
2018-02-06T22:15:24.887Z,88.60
2018-02-06T22:17:52.430Z,88.50
2018-02-06T22:20:19.958Z,88.40
2018-02-06T22:22:48.290Z,88.50
2018-02-06T22:25:15.822Z,88.50
2018-02-06T22:27:43.369Z,88.60
2018-02-06T22:30:11.769Z,88.90
2018-02-06T22:32:39.312Z,88.90
2018-02-06T22:35:07.615Z,89.20
2018-02-06T22:37:35.154Z,89.10
2018-02-06T22:40:02.678Z,89.30
2018-02-06T22:42:30.221Z,89.40
2018-02-06T22:44:57.746Z,90.20
2018-02-06T22:47:26.053Z,90.20
2018-02-06T22:49:54.365Z,90.30
2018-02-06T22:52:21.908Z,90.30
2018-02-06T22:54:49.580Z,90.40
2018-02-06T22:57:17.105Z,90.50
2018-02-06T22:59:45.413Z,90.70
2018-02-06T23:02:12.973Z,90.70
2018-02-06T23:04:40.499Z,90.90
2018-02-06T23:07:08.032Z,91.00
2018-02-06T23:09:35.628Z,90.90
2018-02-06T23:12:03.257Z,90.80
2018-02-06T23:14:30.828Z,90.70
2018-02-06T23:16:58.381Z,90.70
2018-02-06T23:19:25.975Z,91.00
2018-02-06T23:21:53.541Z,90.70
2018-02-06T23:24:21.741Z,90.70
2018-02-06T23:26:49.309Z,90.70
2018-02-06T23:29:16.879Z,90.70
2018-02-06T23:31:44.430Z,90.70
2018-02-06T23:34:11.965Z,90.60
2018-02-06T23:36:39.501Z,90.50
2018-02-06T23:39:07.822Z,90.60
2018-02-06T23:41:35.347Z,90.60
2018-02-06T23:44:03.650Z,90.50
2018-02-06T23:46:31.206Z,90.50
2018-02-06T23:48:58.727Z,90.20
2018-02-06T23:51:26.597Z,90.20
2018-02-06T23:53:54.773Z,90.40
2018-02-06T23:56:22.274Z,90.00
2018-02-06T23:58:50.585Z,90.00
